createdAt,value
2022-12-17T00:09:40.397Z,-0.86
2022-12-17T00:20:03.495Z,-0.84
2022-12-17T00:30:26.834Z,-0.82
2022-12-17T00:40:49.756Z,-0.81
2022-12-17T00:51:14.476Z,-0.85
2022-12-17T01:01:37.969Z,-0.93
2022-12-17T01:12:01.334Z,-0.95
2022-12-17T01:22:24.216Z,-1.07
2022-12-17T01:32:47.443Z,-1.10
2022-12-17T01:43:09.906Z,-1.17
2022-12-17T01:53:36.713Z,-1.15
2022-12-17T02:03:59.184Z,-1.01
2022-12-17T02:14:47.061Z,-1.05
2022-12-17T02:25:21.035Z,-1.12
2022-12-17T02:35:59.116Z,-1.05
2022-12-17T02:46:22.989Z,-1.10
2022-12-17T02:56:56.457Z,-1.17
2022-12-17T03:07:20.886Z,-1.23
2022-12-17T03:17:43.437Z,-1.17
2022-12-17T03:28:05.859Z,-1.18
2022-12-17T03:38:30.242Z,-1.22
2022-12-17T03:48:52.687Z,-1.34
2022-12-17T03:59:15.173Z,-1.58
2022-12-17T04:09:37.566Z,-1.38
2022-12-17T04:20:00.371Z,-1.29
2022-12-17T04:30:23.901Z,-1.50
2022-12-17T04:40:46.579Z,-1.51
2022-12-17T04:51:08.979Z,-1.66
2022-12-17T05:01:31.856Z,-2.02
2022-12-17T05:11:54.892Z,-2.17
2022-12-17T05:22:17.795Z,-2.30
2022-12-17T05:32:40.493Z,-2.34
2022-12-17T05:43:13.628Z,-2.22
2022-12-17T05:53:37.058Z,-2.24
2022-12-17T06:04:00.527Z,-2.35
2022-12-17T06:14:22.844Z,-2.24
2022-12-17T06:24:46.345Z,-2.08
2022-12-17T06:35:08.980Z,-2.26
2022-12-17T06:45:31.957Z,-2.17
2022-12-17T06:55:55.173Z,-2.15
2022-12-17T07:06:20.536Z,-2.23
2022-12-17T07:16:42.905Z,-2.29
2022-12-17T07:27:05.755Z,-2.07
2022-12-17T07:37:28.426Z,-1.87
2022-12-17T07:47:51.628Z,-2.03
2022-12-17T07:58:23.331Z,-2.06
2022-12-17T08:08:45.720Z,-1.89
2022-12-17T08:19:08.736Z,-1.81
2022-12-17T08:29:31.733Z,-1.73
2022-12-17T08:39:54.434Z,-1.72
2022-12-17T08:50:17.447Z,-1.80
2022-12-17T09:00:40.330Z,-1.75
2022-12-17T09:11:02.739Z,-1.51
2022-12-17T09:21:26.877Z,-1.30
2022-12-17T09:31:51.014Z,-0.99
2022-12-17T09:42:19.455Z,-0.94
2022-12-17T09:52:45.086Z,-0.69
2022-12-17T10:03:08.698Z,-0.59
2022-12-17T10:13:38.200Z,-0.49
2022-12-17T10:24:02.840Z,-0.47
2022-12-17T10:34:31.272Z,-0.43
2022-12-17T10:44:56.388Z,-0.56
2022-12-17T10:55:24.813Z,-0.80
2022-12-17T11:05:57.850Z,-1.06
2022-12-17T11:16:29.340Z,-1.36
2022-12-17T11:26:59.806Z,-1.45
2022-12-17T11:37:41.258Z,-1.64
2022-12-17T11:48:19.127Z,-1.85
2022-12-17T11:58:44.675Z,-1.92
2022-12-17T12:09:33.191Z,-1.97
2022-12-17T12:20:15.893Z,-2.06
2022-12-17T12:30:44.632Z,-2.27
2022-12-17T12:41:18.092Z,-2.28
2022-12-17T12:51:40.791Z,-2.20
2022-12-17T13:02:03.530Z,-2.38
2022-12-17T13:12:19.446Z,-2.40
2022-12-17T13:22:24.489Z,-2.42
2022-12-17T13:32:42.407Z,-2.41
2022-12-17T13:42:48.146Z,-2.23
2022-12-17T13:52:52.503Z,-2.13
2022-12-17T14:02:57.331Z,-2.18
2022-12-17T14:13:11.088Z,-2.37
2022-12-17T14:23:27.669Z,-2.49
2022-12-17T14:33:34.546Z,-2.61
2022-12-17T14:43:38.684Z,-2.57
2022-12-17T14:53:42.756Z,-2.63
2022-12-17T15:03:47.455Z,-2.76
2022-12-17T15:13:56.433Z,-2.87
2022-12-17T15:24:01.667Z,-2.74
2022-12-17T15:34:06.410Z,-2.61
2022-12-17T15:44:10.534Z,-2.72
2022-12-17T15:54:15.159Z,-2.80
2022-12-17T16:04:24.945Z,-2.81
2022-12-17T16:14:29.948Z,-2.65
2022-12-17T16:24:34.251Z,-2.57
2022-12-17T16:34:38.879Z,-2.53
2022-12-17T16:44:43.396Z,-2.41
2022-12-17T16:54:49.483Z,-2.43
2022-12-17T17:04:54.327Z,-2.54
2022-12-17T17:14:58.295Z,-2.64
2022-12-17T17:25:02.835Z,-2.63
2022-12-17T17:35:07.068Z,-2.64
2022-12-17T17:45:12.146Z,-2.61
2022-12-17T17:55:16.439Z,-2.55
2022-12-17T18:05:20.894Z,-2.47
2022-12-17T18:15:25.183Z,-2.48
2022-12-17T18:25:34.173Z,-2.44
2022-12-17T18:35:42.140Z,-2.33
2022-12-17T18:45:47.281Z,-2.22
2022-12-17T18:55:52.757Z,-2.24
2022-12-17T19:05:57.699Z,-2.08
2022-12-17T19:16:08.316Z,-2.01
2022-12-17T19:26:16.114Z,-2.00
2022-12-17T19:36:27.896Z,-2.10
2022-12-17T19:46:34.512Z,-2.07
2022-12-17T19:56:39.688Z,-2.08
2022-12-17T20:06:45.937Z,-2.24
2022-12-17T20:16:59.219Z,-2.40
2022-12-17T20:27:07.153Z,-2.42
2022-12-17T20:37:11.989Z,-2.58
2022-12-17T20:47:16.927Z,-2.55
2022-12-17T20:57:21.753Z,-2.49
2022-12-17T21:07:26.530Z,-2.58
2022-12-17T21:17:30.587Z,-2.77
2022-12-17T21:27:35.522Z,-2.76
2022-12-17T21:37:39.452Z,-2.80
2022-12-17T21:47:43.512Z,-2.89
2022-12-17T21:57:47.507Z,-2.82
2022-12-17T22:07:52.746Z,-2.86
2022-12-17T22:17:57.608Z,-2.93
2022-12-17T22:28:02.583Z,-2.95
2022-12-17T22:41:37.477Z,-2.97
2022-12-17T22:48:34.893Z,-3.15
2022-12-17T22:58:38.744Z,-3.16
2022-12-17T23:08:44.108Z,-3.13
2022-12-17T23:18:50.208Z,-3.25
2022-12-17T23:28:58.737Z,-3.37
2022-12-17T23:39:02.634Z,-3.45
2022-12-17T23:49:06.702Z,-3.37
2022-12-17T23:59:11.297Z,-3.36
